createdAt,value
2023-10-09T00:00:41.054Z,95.02
2023-10-09T00:03:08.405Z,95.40
2023-10-09T00:05:47.216Z,95.37
2023-10-09T00:08:23.349Z,95.60
2023-10-09T00:10:54.506Z,95.84
2023-10-09T00:13:29.313Z,96.01
2023-10-09T00:16:01.046Z,96.50
2023-10-09T00:18:31.157Z,96.20
2023-10-09T00:21:01.921Z,96.09
2023-10-09T00:23:29.393Z,96.13
2023-10-09T00:26:10.962Z,95.83
2023-10-09T00:28:39.128Z,95.49
2023-10-09T00:31:07.669Z,95.66
2023-10-09T00:33:34.817Z,94.74
2023-10-09T00:36:11.500Z,95.52
2023-10-09T00:38:45.554Z,94.29
2023-10-09T00:41:13.764Z,94.69
2023-10-09T00:43:44.134Z,94.95
2023-10-09T00:46:24.962Z,94.29
2023-10-09T00:49:02.113Z,94.45
2023-10-09T00:51:35.813Z,94.29
2023-10-09T00:54:15.202Z,94.82
2023-10-09T00:56:44.947Z,94.93
2023-10-09T00:59:16.909Z,94.22
2023-10-09T01:01:57.034Z,93.42
2023-10-09T01:04:30.797Z,93.52
2023-10-09T01:07:15.856Z,92.78
2023-10-09T01:09:46.331Z,92.55
2023-10-09T01:12:18.745Z,92.13
2023-10-09T01:14:45.842Z,91.22
2023-10-09T01:17:13.022Z,90.34
2023-10-09T01:19:39.486Z,90.21
2023-10-09T01:22:13.459Z,89.98
2023-10-09T01:24:40.972Z,90.66
2023-10-09T01:27:16.229Z,89.54
2023-10-09T01:29:44.869Z,91.17
2023-10-09T01:32:17.990Z,90.16
2023-10-09T01:34:51.929Z,90.49
2023-10-09T01:37:23.581Z,89.36
2023-10-09T01:39:59.017Z,89.48
2023-10-09T01:42:31.865Z,88.65
2023-10-09T01:45:17.047Z,88.08
2023-10-09T01:47:52.769Z,87.53
2023-10-09T01:50:21.487Z,87.47
2023-10-09T01:52:50.123Z,88.00
2023-10-09T01:55:49.532Z,87.62
2023-10-09T01:58:24.629Z,86.59
2023-10-09T02:00:58.208Z,87.15
2023-10-09T02:03:25.662Z,87.58
2023-10-09T02:05:54.640Z,87.48
2023-10-09T02:08:36.643Z,86.56
2023-10-09T02:11:03.820Z,86.56
2023-10-09T02:13:31.130Z,86.92
2023-10-09T02:16:15.184Z,86.03
2023-10-09T02:18:53.859Z,86.38
2023-10-09T02:21:30.356Z,86.21
2023-10-09T02:23:58.344Z,86.34
2023-10-09T02:26:29.558Z,86.13
2023-10-09T02:29:00.831Z,85.59
2023-10-09T02:31:36.684Z,86.16
2023-10-09T02:34:06.082Z,86.00
2023-10-09T02:36:32.507Z,86.02
2023-10-09T02:38:59.279Z,86.04
2023-10-09T02:41:29.193Z,86.82
2023-10-09T02:44:05.810Z,86.68
2023-10-09T02:46:32.325Z,85.92
2023-10-09T02:48:58.755Z,87.39
2023-10-09T02:51:29.513Z,86.00
2023-10-09T02:53:58.542Z,85.89
2023-10-09T02:56:28.144Z,84.99
2023-10-09T02:58:57.000Z,85.04
2023-10-09T03:01:23.379Z,84.72
2023-10-09T03:03:50.186Z,86.18
2023-10-09T03:06:26.046Z,86.06
2023-10-09T03:08:52.448Z,85.86
2023-10-09T03:11:19.999Z,85.21
2023-10-09T03:13:46.348Z,84.88
2023-10-09T03:16:17.012Z,83.82
2023-10-09T03:18:43.412Z,83.45
2023-10-09T03:21:10.811Z,83.38
2023-10-09T03:23:37.207Z,83.43
2023-10-09T03:26:19.023Z,83.11
2023-10-09T03:28:48.806Z,83.54
2023-10-09T03:31:15.219Z,84.20
2023-10-09T03:33:41.956Z,84.99
2023-10-09T03:36:11.799Z,84.06
2023-10-09T03:38:39.546Z,83.08
2023-10-09T03:41:07.176Z,83.07
2023-10-09T03:43:38.713Z,83.49
2023-10-09T03:46:06.742Z,83.46
2023-10-09T03:48:33.615Z,83.84
2023-10-09T03:51:10.161Z,83.31
2023-10-09T03:53:37.676Z,84.08
2023-10-09T03:56:10.192Z,83.74
2023-10-09T03:58:36.516Z,81.82
2023-10-09T04:01:08.770Z,82.34
2023-10-09T04:03:37.958Z,81.67
2023-10-09T04:06:05.732Z,82.72
2023-10-09T04:08:34.439Z,81.29
2023-10-09T04:11:05.282Z,81.49
2023-10-09T04:13:35.515Z,80.66
2023-10-09T04:16:12.397Z,80.25
2023-10-09T04:18:39.840Z,80.23
2023-10-09T04:21:19.817Z,80.08
2023-10-09T04:24:05.698Z,79.50
2023-10-09T04:26:35.849Z,79.56
2023-10-09T04:29:03.305Z,79.55
2023-10-09T04:31:35.694Z,79.76
2023-10-09T04:34:23.163Z,79.10
2023-10-09T04:36:57.878Z,78.96
2023-10-09T04:39:30.254Z,79.60
2023-10-09T04:42:16.270Z,79.52
2023-10-09T04:45:01.056Z,79.47
2023-10-09T04:47:36.993Z,79.68
2023-10-09T04:50:10.516Z,79.68
2023-10-09T04:52:37.389Z,78.82
2023-10-09T04:55:12.776Z,78.73
2023-10-09T04:57:42.950Z,78.92
2023-10-09T05:00:26.051Z,79.91
2023-10-09T05:02:57.628Z,79.46
2023-10-09T05:05:44.426Z,78.88
2023-10-09T05:08:30.908Z,78.89
2023-10-09T05:11:04.524Z,79.25
2023-10-09T05:13:43.228Z,78.37
2023-10-09T05:16:17.230Z,78.87
2023-10-09T05:18:46.218Z,78.63
2023-10-09T05:21:31.402Z,78.25
2023-10-09T05:24:14.003Z,78.29
2023-10-09T05:26:48.864Z,78.07
2023-10-09T05:29:34.749Z,77.56
2023-10-09T05:32:16.325Z,78.02
2023-10-09T05:35:00.542Z,77.74
2023-10-09T05:37:35.478Z,78.12
2023-10-09T05:40:04.768Z,78.04
2023-10-09T05:42:39.185Z,77.69
2023-10-09T05:45:19.956Z,77.83
2023-10-09T05:47:54.347Z,77.44
2023-10-09T05:50:28.144Z,77.47
2023-10-09T05:53:30.717Z,77.21
2023-10-09T05:56:17.324Z,77.21
2023-10-09T05:59:03.633Z,77.00
2023-10-09T06:01:48.678Z,77.12
2023-10-09T06:04:18.849Z,77.25
2023-10-09T06:06:46.718Z,77.10
2023-10-09T06:09:15.052Z,76.46
2023-10-09T06:11:50.698Z,77.14
2023-10-09T06:14:30.569Z,76.62
2023-10-09T06:16:58.183Z,76.58
2023-10-09T06:19:33.062Z,76.73
2023-10-09T06:22:19.040Z,76.54
2023-10-09T06:24:54.709Z,76.62
2023-10-09T06:27:27.331Z,76.54
2023-10-09T06:30:13.775Z,76.54
2023-10-09T06:33:05.680Z,76.74
2023-10-09T06:35:36.994Z,76.65
2023-10-09T06:38:03.953Z,77.31
2023-10-09T06:40:37.722Z,76.78
2023-10-09T06:43:10.910Z,76.24
2023-10-09T06:45:46.586Z,76.10
2023-10-09T06:48:33.430Z,76.10
2023-10-09T06:51:34.107Z,76.00
2023-10-09T06:54:05.337Z,75.83
2023-10-09T06:56:31.747Z,75.94
2023-10-09T06:59:05.605Z,75.47
2023-10-09T07:01:43.854Z,75.78
2023-10-09T07:04:20.858Z,75.12
2023-10-09T07:06:51.988Z,75.49
2023-10-09T07:09:20.464Z,75.28
2023-10-09T07:11:49.327Z,74.86
2023-10-09T07:14:33.459Z,75.01
2023-10-09T07:17:23.061Z,75.04
2023-10-09T07:19:51.463Z,74.59
2023-10-09T07:22:20.962Z,74.44
2023-10-09T07:24:51.234Z,75.01
2023-10-09T07:27:41.104Z,74.76
2023-10-09T07:30:29.292Z,74.29
2023-10-09T07:32:57.042Z,74.50
2023-10-09T07:35:42.109Z,74.35
2023-10-09T07:38:09.984Z,74.44
2023-10-09T07:40:58.723Z,74.23
2023-10-09T07:43:41.291Z,74.24
2023-10-09T07:46:27.165Z,73.96
2023-10-09T07:48:54.109Z,73.80
2023-10-09T07:51:24.287Z,74.41
2023-10-09T07:53:58.045Z,74.05
2023-10-09T07:56:25.360Z,73.44
2023-10-09T07:58:52.923Z,73.32
2023-10-09T08:01:36.078Z,72.97
2023-10-09T08:04:06.394Z,72.30
2023-10-09T08:07:02.550Z,71.86
2023-10-09T08:10:01.016Z,71.45
2023-10-09T08:12:59.209Z,71.94
2023-10-09T08:15:35.615Z,71.39
2023-10-09T08:18:08.529Z,71.66
2023-10-09T08:20:53.518Z,71.24
2023-10-09T08:23:34.566Z,70.72
2023-10-09T08:26:14.600Z,70.22
2023-10-09T08:28:46.412Z,70.58
2023-10-09T08:31:35.438Z,71.01
2023-10-09T08:36:37.746Z,71.12
2023-10-09T08:39:26.102Z,70.58
2023-10-09T08:41:53.560Z,69.91
2023-10-09T08:44:26.378Z,69.87
2023-10-09T08:46:55.226Z,69.60
2023-10-09T08:49:22.814Z,70.10
2023-10-09T08:51:49.392Z,70.25
2023-10-09T08:54:16.361Z,70.66
2023-10-09T08:56:52.184Z,70.90
2023-10-09T08:59:20.135Z,71.20
2023-10-09T09:01:50.282Z,71.03
2023-10-09T09:04:39.724Z,71.47
2023-10-09T09:07:23.090Z,71.46
2023-10-09T09:10:05.100Z,71.41
2023-10-09T09:12:38.486Z,70.93
2023-10-09T09:15:11.993Z,72.16
2023-10-09T09:17:42.556Z,70.71
2023-10-09T09:20:24.102Z,70.77
2023-10-09T09:22:57.289Z,71.06
2023-10-09T09:25:32.207Z,70.89
2023-10-09T09:28:10.761Z,70.59
2023-10-09T09:30:38.932Z,70.86
2023-10-09T09:33:43.752Z,71.05
2023-10-09T09:36:12.990Z,70.83
2023-10-09T09:38:52.557Z,70.64
2023-10-09T09:41:26.403Z,70.99
2023-10-09T09:43:57.649Z,70.44
2023-10-09T09:46:34.377Z,70.83
2023-10-09T09:49:17.942Z,70.77
2023-10-09T09:51:47.664Z,70.82
2023-10-09T09:54:16.935Z,70.22
2023-10-09T09:56:51.834Z,69.95
2023-10-09T09:59:28.601Z,70.23
2023-10-09T10:02:07.529Z,70.48
2023-10-09T10:04:38.019Z,70.10
2023-10-09T10:07:10.188Z,70.25
2023-10-09T10:09:46.884Z,69.32
2023-10-09T10:12:15.412Z,68.56
2023-10-09T10:14:51.032Z,68.24
2023-10-09T10:17:21.400Z,67.80
2023-10-09T10:20:26.489Z,68.59
2023-10-09T10:23:19.893Z,68.49
2023-10-09T10:26:01.056Z,68.03
2023-10-09T10:28:43.556Z,67.76
2023-10-09T10:31:10.851Z,68.33
2023-10-09T10:33:54.819Z,68.18
2023-10-09T10:36:26.165Z,67.95
2023-10-09T10:39:17.059Z,67.57
2023-10-09T10:41:55.158Z,68.10
2023-10-09T10:44:39.532Z,68.49
2023-10-09T10:47:28.216Z,67.57
2023-10-09T10:49:59.754Z,67.45
2023-10-09T10:52:36.974Z,66.77
2023-10-09T10:55:32.813Z,66.81
2023-10-09T10:58:01.992Z,67.09
2023-10-09T11:00:48.389Z,65.75
2023-10-09T11:03:30.884Z,65.13
2023-10-09T11:06:14.081Z,65.65
2023-10-09T11:08:55.214Z,64.59
2023-10-09T11:11:22.395Z,64.80
2023-10-09T11:14:03.453Z,63.42
2023-10-09T11:16:42.688Z,63.66
2023-10-09T11:19:24.094Z,62.70
2023-10-09T11:21:59.772Z,61.46
2023-10-09T11:24:34.190Z,60.61
2023-10-09T11:27:06.630Z,60.73
2023-10-09T11:29:46.174Z,60.85
2023-10-09T11:32:23.288Z,60.22
2023-10-09T11:35:09.621Z,58.28
2023-10-09T11:37:45.098Z,57.43
2023-10-09T11:40:48.795Z,57.25
2023-10-09T11:43:15.559Z,57.35
2023-10-09T11:45:55.360Z,55.58
2023-10-09T11:48:45.546Z,54.41
2023-10-09T11:51:20.103Z,53.57
2023-10-09T11:53:50.733Z,51.89
2023-10-09T11:56:25.557Z,52.81
2023-10-09T11:58:52.469Z,52.03
2023-10-09T12:01:21.273Z,51.40
2023-10-09T12:03:51.134Z,52.66
2023-10-09T12:06:23.640Z,53.10
2023-10-09T12:08:50.784Z,53.33
2023-10-09T12:11:24.996Z,52.09
2023-10-09T12:13:57.329Z,52.22
2023-10-09T12:16:29.007Z,51.78
2023-10-09T12:18:56.038Z,51.83
2023-10-09T12:21:22.424Z,52.47
2023-10-09T12:23:48.822Z,53.21
2023-10-09T12:26:15.949Z,53.86
2023-10-09T12:28:47.041Z,54.09
2023-10-09T12:31:16.128Z,53.58
2023-10-09T12:33:43.180Z,54.28
2023-10-09T12:36:20.698Z,54.52
2023-10-09T12:38:55.547Z,54.16
2023-10-09T12:41:29.270Z,53.50
2023-10-09T12:43:56.586Z,54.37
2023-10-09T12:46:29.400Z,55.45
2023-10-09T12:48:55.918Z,55.84
2023-10-09T12:51:26.757Z,55.67
2023-10-09T12:53:58.228Z,55.93
2023-10-09T12:56:33.923Z,56.58
2023-10-09T12:59:02.717Z,56.38
2023-10-09T13:01:43.588Z,56.50
2023-10-09T13:04:12.769Z,56.75
2023-10-09T13:06:46.286Z,56.56
2023-10-09T13:09:25.668Z,56.39
2023-10-09T13:11:52.211Z,56.91
2023-10-09T13:14:20.112Z,56.83
2023-10-09T13:16:47.301Z,56.99
2023-10-09T13:19:14.116Z,56.79
2023-10-09T13:21:41.319Z,57.28
2023-10-09T13:24:17.303Z,55.81
2023-10-09T13:26:52.230Z,55.32
2023-10-09T13:29:23.690Z,54.61
2023-10-09T13:31:53.638Z,54.37
2023-10-09T13:34:20.035Z,54.20
2023-10-09T13:36:54.734Z,53.13
2023-10-09T13:39:27.714Z,53.48
2023-10-09T13:42:05.508Z,53.76
2023-10-09T13:44:33.161Z,52.89
2023-10-09T13:47:02.782Z,52.32
2023-10-09T13:49:32.304Z,52.19
2023-10-09T13:52:04.055Z,51.87
2023-10-09T13:54:34.683Z,52.17
2023-10-09T13:57:05.009Z,53.21
2023-10-09T13:59:32.050Z,53.72
2023-10-09T14:02:00.373Z,52.61
2023-10-09T14:04:29.597Z,52.45
2023-10-09T14:07:00.433Z,51.80
2023-10-09T14:09:38.973Z,51.69
2023-10-09T14:12:07.747Z,51.28
2023-10-09T14:14:48.153Z,51.54
2023-10-09T14:17:24.530Z,51.40
2023-10-09T14:19:52.540Z,51.63
2023-10-09T14:22:20.995Z,51.53
2023-10-09T14:24:48.809Z,51.71
2023-10-09T14:27:19.198Z,51.24
2023-10-09T14:29:50.448Z,51.66
2023-10-09T14:32:17.573Z,51.70
2023-10-09T14:34:51.113Z,51.18
2023-10-09T14:37:21.536Z,51.21
2023-10-09T14:39:51.231Z,51.43
2023-10-09T14:42:18.930Z,51.70
2023-10-09T14:44:48.923Z,52.05
2023-10-09T14:47:15.749Z,52.09
2023-10-09T14:49:45.338Z,52.01
2023-10-09T14:52:11.815Z,51.61
2023-10-09T14:54:39.266Z,51.53
2023-10-09T14:57:07.081Z,51.51
2023-10-09T14:59:36.546Z,51.42
2023-10-09T15:02:02.934Z,51.34
2023-10-09T15:04:29.432Z,51.77
2023-10-09T15:06:55.843Z,51.70
2023-10-09T15:09:29.308Z,51.95
2023-10-09T15:11:55.876Z,52.22
2023-10-09T15:14:22.338Z,51.92
2023-10-09T15:16:49.143Z,52.56
2023-10-09T15:19:17.474Z,52.13
2023-10-09T15:21:47.624Z,52.10
2023-10-09T15:24:20.389Z,52.19
2023-10-09T15:26:53.290Z,52.40
2023-10-09T15:29:24.215Z,52.47
2023-10-09T15:31:54.006Z,52.26
2023-10-09T15:34:21.652Z,52.36
2023-10-09T15:36:48.460Z,51.98
2023-10-09T15:39:15.384Z,52.00
2023-10-09T15:41:41.844Z,52.26
2023-10-09T15:44:08.227Z,52.14
2023-10-09T15:46:35.601Z,52.04
2023-10-09T15:49:02.540Z,52.32
2023-10-09T15:51:30.642Z,51.95
2023-10-09T15:53:57.956Z,52.27
2023-10-09T15:56:25.360Z,52.03
2023-10-09T15:58:55.036Z,51.47
2023-10-09T16:01:21.797Z,51.30
2023-10-09T16:03:49.007Z,51.83
2023-10-09T16:06:17.201Z,52.50
2023-10-09T16:08:51.152Z,52.23
2023-10-09T16:11:24.941Z,52.34
2023-10-09T16:13:54.657Z,52.60
2023-10-09T16:16:31.485Z,52.81
2023-10-09T16:18:58.813Z,52.66
2023-10-09T16:21:25.854Z,52.85
2023-10-09T16:23:53.190Z,53.19
2023-10-09T16:26:20.826Z,53.60
2023-10-09T16:28:49.477Z,53.88
2023-10-09T16:31:19.816Z,53.78
2023-10-09T16:33:48.597Z,54.25
2023-10-09T16:36:16.666Z,55.31
2023-10-09T16:38:44.664Z,55.26
2023-10-09T16:41:11.073Z,56.30
2023-10-09T16:43:44.367Z,57.23
2023-10-09T16:46:12.343Z,56.54
2023-10-09T16:48:38.692Z,56.63
2023-10-09T16:51:09.671Z,56.54
2023-10-09T16:53:40.097Z,56.31
2023-10-09T16:56:10.914Z,56.85
2023-10-09T16:58:38.812Z,57.06
2023-10-09T17:01:11.453Z,57.04
2023-10-09T17:03:43.281Z,57.50
2023-10-09T17:06:11.306Z,57.73
2023-10-09T17:08:44.189Z,57.31
2023-10-09T17:11:21.101Z,58.25
2023-10-09T17:13:53.415Z,58.58
2023-10-09T17:16:22.690Z,58.38
2023-10-09T17:18:57.648Z,57.69
2023-10-09T17:21:24.374Z,58.91
2023-10-09T17:23:52.144Z,59.20
2023-10-09T17:26:23.767Z,59.92
2023-10-09T17:28:53.286Z,60.31
2023-10-09T17:31:24.757Z,60.02
2023-10-09T17:33:54.880Z,59.04
2023-10-09T17:36:21.609Z,60.47
2023-10-09T17:38:51.826Z,60.25
2023-10-09T17:41:22.495Z,61.22
2023-10-09T17:43:51.321Z,61.71
2023-10-09T17:46:18.845Z,61.51
2023-10-09T17:48:46.215Z,62.14
2023-10-09T17:51:12.701Z,62.41
2023-10-09T17:53:39.728Z,62.85
2023-10-09T17:56:07.418Z,62.93
2023-10-09T17:58:33.824Z,62.74
2023-10-09T18:01:02.810Z,62.96
2023-10-09T18:03:31.159Z,62.65
2023-10-09T18:05:58.404Z,61.06
2023-10-09T18:08:26.755Z,61.40
2023-10-09T18:10:57.804Z,61.78
2023-10-09T18:13:26.043Z,60.96
2023-10-09T18:16:10.842Z,61.25
2023-10-09T18:18:37.866Z,61.19
2023-10-09T18:21:06.814Z,62.01
2023-10-09T18:23:34.055Z,61.72
2023-10-09T18:26:02.296Z,62.76
2023-10-09T18:28:29.712Z,63.00
2023-10-09T18:30:56.151Z,63.47
2023-10-09T18:33:24.187Z,63.87
2023-10-09T18:35:50.609Z,64.37
2023-10-09T18:38:19.889Z,64.95
2023-10-09T18:40:49.198Z,65.66
2023-10-09T18:43:15.958Z,65.18
2023-10-09T18:45:43.739Z,65.95
2023-10-09T18:48:13.606Z,67.08
2023-10-09T18:50:42.487Z,67.21
2023-10-09T18:53:11.230Z,67.13
2023-10-09T18:55:38.419Z,68.20
2023-10-09T18:58:06.214Z,68.34
2023-10-09T19:00:32.895Z,68.79
2023-10-09T19:03:01.010Z,68.39
2023-10-09T19:05:28.334Z,68.72
2023-10-09T19:07:55.023Z,68.89
2023-10-09T19:10:26.517Z,69.42
2023-10-09T19:12:53.873Z,68.85
2023-10-09T19:15:20.142Z,68.53
2023-10-09T19:17:46.679Z,68.65
2023-10-09T19:20:13.261Z,69.38
2023-10-09T19:22:40.150Z,69.19
2023-10-09T19:25:17.403Z,69.58
2023-10-09T19:27:49.783Z,70.83
2023-10-09T19:30:19.493Z,70.88
2023-10-09T19:32:48.659Z,70.26
2023-10-09T19:35:16.477Z,70.42
2023-10-09T19:37:43.431Z,72.52
2023-10-09T19:40:13.029Z,73.61
2023-10-09T19:42:40.091Z,72.59
2023-10-09T19:45:10.734Z,73.62
2023-10-09T19:47:40.832Z,74.33
2023-10-09T19:50:16.224Z,74.46
2023-10-09T19:52:43.393Z,76.01
2023-10-09T19:55:10.519Z,76.17
2023-10-09T19:57:36.933Z,75.92
2023-10-09T20:00:07.513Z,77.14
2023-10-09T20:02:35.699Z,77.71
2023-10-09T20:05:02.226Z,78.56
2023-10-09T20:07:28.679Z,77.78
2023-10-09T20:09:59.099Z,78.62
2023-10-09T20:12:30.631Z,79.28
2023-10-09T20:14:57.367Z,79.73
2023-10-09T20:17:25.215Z,79.60
2023-10-09T20:19:53.982Z,79.68
2023-10-09T20:22:21.421Z,80.82
2023-10-09T20:24:47.765Z,80.43
2023-10-09T20:27:18.159Z,80.32
2023-10-09T20:29:44.878Z,81.06
2023-10-09T20:32:15.243Z,81.26
2023-10-09T20:34:45.316Z,80.95
2023-10-09T20:37:13.492Z,81.85
2023-10-09T20:39:41.794Z,82.29
2023-10-09T20:42:08.142Z,82.46
2023-10-09T20:44:36.382Z,82.94
2023-10-09T20:47:04.075Z,83.36
2023-10-09T20:49:32.662Z,83.29
2023-10-09T20:51:59.154Z,83.90
2023-10-09T20:54:26.458Z,84.09
2023-10-09T20:56:53.008Z,84.46
2023-10-09T20:59:19.776Z,84.28
2023-10-09T21:01:46.566Z,84.47
2023-10-09T21:04:13.262Z,84.54
2023-10-09T21:06:39.752Z,84.97
2023-10-09T21:09:08.021Z,84.92
2023-10-09T21:11:34.806Z,85.83
2023-10-09T21:14:01.304Z,85.88
2023-10-09T21:16:27.604Z,86.24
2023-10-09T21:18:56.769Z,86.45
2023-10-09T21:21:23.438Z,86.29
2023-10-09T21:23:50.525Z,86.75
2023-10-09T21:26:20.752Z,86.42
2023-10-09T21:28:48.792Z,85.86
2023-10-09T21:31:22.668Z,86.45
2023-10-09T21:33:50.079Z,86.38
2023-10-09T21:36:17.270Z,86.25
2023-10-09T21:38:43.716Z,86.48
2023-10-09T21:41:14.437Z,86.79
2023-10-09T21:43:41.257Z,86.16
2023-10-09T21:46:11.705Z,86.62
2023-10-09T21:48:39.135Z,86.79
2023-10-09T21:51:09.185Z,86.46
2023-10-09T21:53:36.088Z,86.59
2023-10-09T21:56:11.691Z,86.77
2023-10-09T21:58:38.205Z,86.29
2023-10-09T22:01:04.662Z,86.50
2023-10-09T22:03:32.130Z,87.30
2023-10-09T22:05:59.888Z,86.94
2023-10-09T22:08:26.774Z,87.28
2023-10-09T22:10:54.495Z,87.05
2023-10-09T22:13:21.882Z,87.40
2023-10-09T22:15:49.301Z,86.74
2023-10-09T22:18:22.065Z,87.35
2023-10-09T22:20:49.611Z,87.29
2023-10-09T22:23:19.737Z,87.00
2023-10-09T22:25:56.656Z,87.47
2023-10-09T22:28:24.752Z,87.69
2023-10-09T22:30:54.171Z,87.43
2023-10-09T22:33:23.148Z,87.57
2023-10-09T22:35:49.612Z,87.70
2023-10-09T22:38:21.689Z,87.38
2023-10-09T22:40:55.518Z,88.19
2023-10-09T22:43:24.643Z,88.00
2023-10-09T22:45:52.140Z,88.68
2023-10-09T22:48:19.927Z,88.89
2023-10-09T22:50:47.319Z,88.48
2023-10-09T22:53:22.830Z,88.10
2023-10-09T22:55:54.225Z,87.94
2023-10-09T22:58:28.357Z,87.44
2023-10-09T23:01:02.186Z,89.25
2023-10-09T23:03:29.600Z,89.45
2023-10-09T23:06:12.768Z,88.68
2023-10-09T23:08:40.054Z,88.87
2023-10-09T23:11:09.839Z,89.61
2023-10-09T23:13:53.650Z,89.60
2023-10-09T23:16:33.456Z,89.38
2023-10-09T23:19:05.721Z,89.19
2023-10-09T23:21:50.720Z,89.58
2023-10-09T23:24:29.323Z,89.81
2023-10-09T23:26:56.570Z,89.31
2023-10-09T23:29:30.535Z,90.28
2023-10-09T23:32:17.462Z,90.57
2023-10-09T23:34:53.570Z,90.48
2023-10-09T23:37:38.876Z,90.75
2023-10-09T23:40:14.645Z,90.95
2023-10-09T23:42:50.997Z,91.14
2023-10-09T23:45:21.832Z,91.31
2023-10-09T23:47:48.342Z,90.31
2023-10-09T23:50:17.174Z,90.36
2023-10-09T23:52:47.514Z,91.76
2023-10-09T23:55:14.139Z,91.14
2023-10-09T23:57:45.099Z,91.75
